Swift Ace — C6XB8 — position and weather

sailwx.info

Track history (hours):
 
Tides and Currents Weather Stations Pressure Air Temp Water Temp Dewpoint Dewpoint Depression Visibility Wind Speed Wind Dir Waves Ship Positions

Swift Ace

Last reported at 2014-Aug-19 16:20 UTC. Time now 2014-Aug-22 06:00 UTC.
Position N 34°06' E 138°01'.

Length 200 m; draft 8 m.

Type: Cargo ship. MMSI: 311004900.

Date/timePositionNaut miles runAvg speedWind from/ knotsBaromVisibWave heightAir tempDewpointWater temp
2014-Aug-19 16:20N 34°06' E 138°01'6817.0
2014-Aug-19 12:20N 34°42' E 139°11'1416.2
2014-Aug-19 11:29N 34°53' E 139°21'1515.9
2014-Aug-19 10:33N 35°01' E 139°36'1414.2
2014-Aug-19 09:33N 35°12' E 139°46'1111.4
2014-Aug-19 08:33N 35°23' E 139°42'2 2.4
2014-Aug-19 07:33N 35°25' E 139°41'0 0.0
2014-Aug-19 06:33N 35°25' E 139°41'0 0.0
2014-Aug-19 05:33N 35°25' E 139°41'0 0.0
2014-Aug-19 04:33N 35°25' E 139°41'0 0.0
2014-Aug-19 03:33N 35°25' E 139°41'0 0.0
2014-Aug-19 02:33N 35°25' E 139°41'0 0.0
2014-Aug-19 01:33N 35°25' E 139°41'0 0.0
2014-Aug-19 00:33N 35°25' E 139°41'0 0.0
2014-Aug-18 23:33N 35°25' E 139°41'0 0.0
2014-Aug-18 22:33N 35°25' E 139°41'3 3.5
2014-Aug-18 21:33N 35°22' E 139°43'1111.1
2014-Aug-18 20:33N 35°12' E 139°47'1110.8
2014-Aug-18 19:33N 35°02' E 139°42'1111.3
2014-Aug-18 18:33N 34°51' E 139°45'6 6.4
2014-Aug-18 17:33N 34°48' E 139°52'1 1.4
2014-Aug-18 16:33N 34°47' E 139°54'1 1.4
2014-Aug-18 15:33N 34°46' E 139°52'2 1.7
2014-Aug-18 14:33N 34°45' E 139°51'2 1.6
2014-Aug-18 13:33N 34°44' E 139°49'1 1.5
2014-Aug-18 12:33N 34°44' E 139°47'2 1.6
2014-Aug-18 11:33N 34°43' E 139°45'1 1.5
2014-Aug-18 10:33N 34°43' E 139°44'1 1.0
2014-Aug-18 09:33N 34°42' E 139°43'1 0.9
2014-Aug-18 08:33N 34°41' E 139°42'1 0.9
2014-Aug-18 07:28N 34°40' E 139°42'4 3.8
2014-Aug-18 06:32N 34°44' E 139°43'5 5.3
2014-Aug-18 05:33N 34°49' E 139°44'1 1.0
2014-Aug-18 04:33N 34°48' E 139°44'1 0.8
2014-Aug-18 03:33N 34°47' E 139°44'0 0.4
2014-Aug-18 02:33N 34°47' E 139°45'1 0.7
2014-Aug-18 01:33N 34°46' E 139°44'1 0.9
2014-Aug-18 00:33N 34°46' E 139°43'5 0.8
2014-Aug-17 18:33N 34°43' E 139°39'3 2.9
2014-Aug-17 17:33N 34°45' E 139°36'1 0.6
2014-Aug-17 16:25N 34°44' E 139°35'1 0.8
2014-Aug-17 15:33N 34°44' E 139°35'2 2.5
2014-Aug-17 14:33N 34°44' E 139°38'1414.2
2014-Aug-17 13:33N 34°47' E 139°54'1514.8
2014-Aug-17 12:33N 34°51' E 140°12'1514.6
2014-Aug-17 11:33N 34°58' E 140°27'1313.1
2014-Aug-17 10:33N 35°04' E 140°41'1512.7
2014-Aug-17 09:20N 35°11' E 140°58'1012.4
2014-Aug-17 08:32N 35°16' E 141°09'1611.9
2014-Aug-17 07:13N 35°24' E 141°25'811.3
2014-Aug-17 06:32N 35°27' E 141°34'1210.8
2014-Aug-17 05:28N 35°32' E 141°47'1010.7
2014-Aug-17 04:33N 35°38' E 141°57'1111.1
2014-Aug-17 03:34N 35°43' E 142°09'  
Track history (hours):
 
Tides and Currents Weather Stations Pressure Air Temp Water Temp Dewpoint Dewpoint Depression Visibility Wind Speed Wind Dir Waves Ship Positions

Swift Ace

Last reported at 2014-Aug-19 16:20 UTC. Time now 2014-Aug-22 06:00 UTC.
Position N 34°06' E 138°01'.

Length 200 m; draft 8 m.

Type: Cargo ship. MMSI: 311004900.

Date/timePositionNaut miles runAvg speedWind from/ knotsBaromVisibWave heightAir tempDewpointWater temp
2014-Aug-19 16:20N 34°06' E 138°01'6817.0
2014-Aug-19 12:20N 34°42' E 139°11'1416.2
2014-Aug-19 11:29N 34°53' E 139°21'1515.9
2014-Aug-19 10:33N 35°01' E 139°36'1414.2
2014-Aug-19 09:33N 35°12' E 139°46'1111.4
2014-Aug-19 08:33N 35°23' E 139°42'2 2.4
2014-Aug-19 07:33N 35°25' E 139°41'0 0.0
2014-Aug-19 06:33N 35°25' E 139°41'0 0.0
2014-Aug-19 05:33N 35°25' E 139°41'0 0.0
2014-Aug-19 04:33N 35°25' E 139°41'0 0.0
2014-Aug-19 03:33N 35°25' E 139°41'0 0.0
2014-Aug-19 02:33N 35°25' E 139°41'0 0.0
2014-Aug-19 01:33N 35°25' E 139°41'0 0.0
2014-Aug-19 00:33N 35°25' E 139°41'0 0.0
2014-Aug-18 23:33N 35°25' E 139°41'0 0.0
2014-Aug-18 22:33N 35°25' E 139°41'3 3.5
2014-Aug-18 21:33N 35°22' E 139°43'1111.1
2014-Aug-18 20:33N 35°12' E 139°47'1110.8
2014-Aug-18 19:33N 35°02' E 139°42'1111.3
2014-Aug-18 18:33N 34°51' E 139°45'6 6.4
2014-Aug-18 17:33N 34°48' E 139°52'1 1.4
2014-Aug-18 16:33N 34°47' E 139°54'1 1.4
2014-Aug-18 15:33N 34°46' E 139°52'2 1.7
2014-Aug-18 14:33N 34°45' E 139°51'2 1.6
2014-Aug-18 13:33N 34°44' E 139°49'1 1.5
2014-Aug-18 12:33N 34°44' E 139°47'2 1.6
2014-Aug-18 11:33N 34°43' E 139°45'1 1.5
2014-Aug-18 10:33N 34°43' E 139°44'1 1.0
2014-Aug-18 09:33N 34°42' E 139°43'1 0.9
2014-Aug-18 08:33N 34°41' E 139°42'1 0.9
2014-Aug-18 07:28N 34°40' E 139°42'4 3.8
2014-Aug-18 06:32N 34°44' E 139°43'5 5.3
2014-Aug-18 05:33N 34°49' E 139°44'1 1.0
2014-Aug-18 04:33N 34°48' E 139°44'1 0.8
2014-Aug-18 03:33N 34°47' E 139°44'0 0.4
2014-Aug-18 02:33N 34°47' E 139°45'1 0.7
2014-Aug-18 01:33N 34°46' E 139°44'1 0.9
2014-Aug-18 00:33N 34°46' E 139°43'5 0.8
2014-Aug-17 18:33N 34°43' E 139°39'3 2.9
2014-Aug-17 17:33N 34°45' E 139°36'1 0.6
2014-Aug-17 16:25N 34°44' E 139°35'1 0.8
2014-Aug-17 15:33N 34°44' E 139°35'2 2.5
2014-Aug-17 14:33N 34°44' E 139°38'1414.2
2014-Aug-17 13:33N 34°47' E 139°54'1514.8
2014-Aug-17 12:33N 34°51' E 140°12'1514.6
2014-Aug-17 11:33N 34°58' E 140°27'1313.1
2014-Aug-17 10:33N 35°04' E 140°41'1512.7
2014-Aug-17 09:20N 35°11' E 140°58'1012.4
2014-Aug-17 08:32N 35°16' E 141°09'1611.9
2014-Aug-17 07:13N 35°24' E 141°25'811.3
2014-Aug-17 06:32N 35°27' E 141°34'1210.8
2014-Aug-17 05:28N 35°32' E 141°47'1010.7
2014-Aug-17 04:33N 35°38' E 141°57'1111.1
2014-Aug-17 03:34N 35°43' E 142°09'  

Dump ship's entire track history